Wortham, TX (76693)

6:03 PM CST on November 23, 2014 (GMT -0600)
Amateur Radio Station KC5PID | Change Station
CLOSE
Current Station
Personal Weather Station
Location: Mexia, TX
Elevation: 507 ft
Nearby Weather Stations

Elev 507 ft 31.67 °N, 96.47 °W | Updated 6 seconds ago

Clear
Clear
70.5 °F
Feels Like 77 °F
N
0.9
Wind Variable Wind from West
Gusts 2.9 mph

Today
High -- | Low -- °F
--% Chance of Precip.
Yesterday
High -- | Low -- °F
Precip. -- in
7:01 AM 5:23 PM
Waxing Crescent, 3% visible
Pressure 29.51 in
Visibility 10.0 miles
Clouds Clear
Heat Index 77 °F
Dew Point 46 °F
Humidity 42%
Rainfall 0.00 in
Snow Depth Not available.
UV 0.0 out of 12
Pollen 3.40 out of 12
Air Quality Not available.
Flu Activity Not available.
METAR KLXY 232355Z AUTO 24004KT 10SM CLR 21/06 A2951 RMK AO2 T02110055 10251 20207

More Conditions Fewer Conditions

Pressure 29.51 in
Visibility 10.0 miles
Clouds Clear
Heat Index 77 °F
Dew Point 46 °F
Humidity 42%
Rainfall 0.00 in
Snow Depth Not available.
UV 0.0 out of 12
Pollen 3.40 out of 12
Air Quality Not available.
Flu Activity Not available.
METAR KLXY 232355Z AUTO 24004KT 10SM CLR 21/06 A2951 RMK AO2 T02110055 10251 20207

More Conditions Fewer Conditions

10-Day Weather Forecast

Almanac

Astronomy

Nov. 23, 2014 Rise Set
Actual Time
Civil Twilight
Nautical Twilight
Astronomical Twilight
Moon
Length of Visible Light
Length of Day
Tomorrow will be .
, % of the Moon is Illuminated

Today's Extremes

State Highs State Lows

Community

WunderPhotos

Upload Photos

1,773,215 photos uploaded!

WunderBlogs® & News

Nearby

Air Quality

  Air Quality AQ Index Pollutant
Not available.

Snow Depth

Station Depth Elevation

Earthquake Activity

City Distance Mag. Time & Date
Minimum magnitude displayed is 2.5.

Coastal Water Temperatures

Place Temperature

Nearby Weather Stations